createdAt,value
2022-12-06T00:00:09.973Z,1006.76
2022-12-06T00:01:10.185Z,1006.72
2022-12-06T00:02:09.991Z,1006.73
2022-12-06T00:03:09.986Z,1006.70
2022-12-06T00:04:10.127Z,1006.70
2022-12-06T00:05:10.111Z,1006.64
2022-12-06T00:06:09.895Z,1006.75
2022-12-06T00:07:09.883Z,1006.73
2022-12-06T00:08:09.951Z,1006.66
2022-12-06T00:09:10.053Z,1006.69
2022-12-06T00:10:09.841Z,1006.74
2022-12-06T00:11:09.832Z,1006.73
2022-12-06T00:12:10.055Z,1006.75
2022-12-06T00:13:09.802Z,1006.76
2022-12-06T00:14:09.799Z,1006.72
2022-12-06T00:15:09.771Z,1006.69
2022-12-06T00:16:09.794Z,1006.69
2022-12-06T00:17:09.763Z,1006.73
2022-12-06T00:18:09.951Z,1006.71
2022-12-06T00:19:09.732Z,1006.72
2022-12-06T00:20:09.729Z,1006.70
2022-12-06T00:21:09.708Z,1006.74
2022-12-06T00:22:09.729Z,1006.75
2022-12-06T00:23:09.671Z,1006.71
2022-12-06T00:24:09.670Z,1006.70
2022-12-06T00:25:09.678Z,1006.75
2022-12-06T00:26:09.650Z,1006.74
2022-12-06T00:27:09.830Z,1006.74
2022-12-06T00:28:09.617Z,1006.72
2022-12-06T00:29:09.598Z,1006.72
2022-12-06T00:30:09.600Z,1006.69
2022-12-06T00:31:09.588Z,1006.72
2022-12-06T00:32:12.292Z,1006.68
2022-12-06T00:33:10.547Z,1006.65
2022-12-06T00:34:09.543Z,1006.68
2022-12-06T00:35:09.557Z,1006.66
2022-12-06T00:36:09.536Z,1006.64
2022-12-06T00:37:09.504Z,1006.65
2022-12-06T00:38:09.497Z,1006.68
2022-12-06T00:39:09.479Z,1006.64
2022-12-06T00:40:09.498Z,1006.66
2022-12-06T00:41:09.466Z,1006.60
2022-12-06T00:42:09.454Z,1006.59
2022-12-06T00:43:09.432Z,1006.62
2022-12-06T00:44:09.416Z,1006.53
2022-12-06T00:45:09.617Z,1006.53
2022-12-06T00:46:09.531Z,1006.59
2022-12-06T00:47:09.373Z,1006.60
2022-12-06T00:48:09.363Z,1006.62
2022-12-06T00:49:09.355Z,1006.60
2022-12-06T00:50:09.551Z,1006.69
2022-12-06T00:51:09.345Z,1006.58
2022-12-06T00:52:09.331Z,1006.61
2022-12-06T00:53:09.324Z,1006.63
2022-12-06T00:54:09.301Z,1006.62
2022-12-06T00:55:09.481Z,1006.63
2022-12-06T00:56:09.274Z,1006.62
2022-12-06T00:57:09.260Z,1006.70
2022-12-06T00:58:09.240Z,1006.67
2022-12-06T00:59:09.219Z,1006.69
2022-12-06T01:00:09.425Z,1006.72
2022-12-06T01:01:09.287Z,1006.73
2022-12-06T01:02:09.198Z,1006.75
2022-12-06T01:03:09.254Z,1006.74
2022-12-06T01:04:09.170Z,1006.74
2022-12-06T01:05:09.390Z,1006.74
2022-12-06T01:06:09.152Z,1006.73
2022-12-06T01:07:09.132Z,1006.75
2022-12-06T01:08:09.174Z,1006.70
2022-12-06T01:09:09.325Z,1006.76
2022-12-06T01:10:09.088Z,1006.74
2022-12-06T01:11:09.089Z,1006.64
2022-12-06T01:12:09.075Z,1006.70
2022-12-06T01:13:09.056Z,1006.77
2022-12-06T01:14:09.283Z,1006.83
2022-12-06T01:15:09.041Z,1006.74
2022-12-06T01:16:09.064Z,1006.73
2022-12-06T01:17:09.088Z,1006.74
2022-12-06T01:18:08.994Z,1006.75
2022-12-06T01:19:09.120Z,1006.76
2022-12-06T01:20:08.996Z,1006.78
2022-12-06T01:21:08.967Z,1006.75
2022-12-06T01:22:09.136Z,1006.79
2022-12-06T01:23:08.923Z,1006.76
2022-12-06T01:24:08.923Z,1006.74
2022-12-06T01:25:08.922Z,1006.80
2022-12-06T01:26:09.092Z,1006.75
2022-12-06T01:27:08.877Z,1006.80
2022-12-06T01:28:08.872Z,1006.78
2022-12-06T01:29:08.853Z,1006.77
2022-12-06T01:30:08.841Z,1006.84
2022-12-06T01:31:09.112Z,1006.79
2022-12-06T01:32:08.822Z,1006.79
2022-12-06T01:33:08.810Z,1006.78
2022-12-06T01:34:09.030Z,1006.81
2022-12-06T01:35:08.784Z,1006.80
2022-12-06T01:36:08.770Z,1006.77
2022-12-06T01:37:08.750Z,1006.77
2022-12-06T01:38:08.960Z,1006.78
2022-12-06T01:39:08.729Z,1006.79
2022-12-06T01:40:08.721Z,1006.80
2022-12-06T01:41:08.709Z,1006.77
2022-12-06T01:42:08.689Z,1006.81
2022-12-06T01:43:08.891Z,1006.77
2022-12-06T01:44:08.877Z,1006.81
2022-12-06T01:45:08.658Z,1006.73
2022-12-06T01:46:08.680Z,1006.73
2022-12-06T01:47:08.624Z,1006.69
2022-12-06T01:48:08.619Z,1006.67
2022-12-06T01:49:08.823Z,1006.68
2022-12-06T01:50:08.797Z,1006.66
2022-12-06T01:51:08.576Z,1006.64
2022-12-06T01:52:08.577Z,1006.65
2022-12-06T01:53:08.547Z,1006.67
2022-12-06T01:54:08.546Z,1006.75
2022-12-06T01:55:08.739Z,1006.78
2022-12-06T01:56:08.523Z,1006.63
2022-12-06T01:57:08.698Z,1006.77
2022-12-06T01:58:08.494Z,1006.75
2022-12-06T01:59:08.483Z,1006.67
2022-12-06T02:00:08.466Z,1006.65
2022-12-06T02:01:08.513Z,1006.71
2022-12-06T02:02:08.708Z,1006.58
2022-12-06T02:03:08.456Z,1006.65
2022-12-06T02:04:08.423Z,1006.62
2022-12-06T02:05:08.404Z,1006.60
2022-12-06T02:06:08.392Z,1006.59
2022-12-06T02:07:08.380Z,1006.55
2022-12-06T02:08:08.678Z,1006.56
2022-12-06T02:09:08.353Z,1006.62
2022-12-06T02:10:08.433Z,1006.59
2022-12-06T02:11:08.395Z,1006.56
2022-12-06T02:12:08.321Z,1006.55
2022-12-06T02:13:08.301Z,1006.57
2022-12-06T02:14:08.297Z,1006.58
2022-12-06T02:15:08.491Z,1006.63
2022-12-06T02:16:08.550Z,1006.63
2022-12-06T02:17:08.311Z,1006.63
2022-12-06T02:18:08.251Z,1006.59
2022-12-06T02:19:08.228Z,1006.58
2022-12-06T02:20:08.461Z,1006.61
2022-12-06T02:21:08.203Z,1006.64
2022-12-06T02:22:08.196Z,1006.62
2022-12-06T02:23:08.178Z,1006.57
2022-12-06T02:24:08.175Z,1006.58
2022-12-06T02:25:08.359Z,1006.58
2022-12-06T02:26:08.151Z,1006.61
2022-12-06T02:27:08.307Z,1006.64
2022-12-06T02:28:08.118Z,1006.57
2022-12-06T02:29:08.312Z,1006.56
2022-12-06T02:30:08.109Z,1006.49
2022-12-06T02:31:08.352Z,1006.54
2022-12-06T02:32:08.080Z,1006.48
2022-12-06T02:33:08.046Z,1006.46
2022-12-06T02:34:08.044Z,1006.46
2022-12-06T02:35:08.035Z,1006.52
2022-12-06T02:36:08.229Z,1006.48
2022-12-06T02:37:08.013Z,1006.49
2022-12-06T02:38:12.835Z,1006.45
2022-12-06T02:39:08.982Z,1006.50
2022-12-06T02:40:07.964Z,1006.48
2022-12-06T02:41:07.954Z,1006.57
2022-12-06T02:42:08.243Z,1006.48
2022-12-06T02:43:07.933Z,1006.52
2022-12-06T02:44:08.124Z,1006.49
2022-12-06T02:45:07.902Z,1006.44
2022-12-06T02:46:07.938Z,1006.43
2022-12-06T02:47:08.091Z,1006.39
2022-12-06T02:48:07.871Z,1006.48
2022-12-06T02:49:07.852Z,1006.41
2022-12-06T02:50:08.043Z,1006.45
2022-12-06T02:51:07.831Z,1006.48
2022-12-06T02:52:08.062Z,1006.37
2022-12-06T02:53:07.801Z,1006.41
2022-12-06T02:54:07.800Z,1006.32
2022-12-06T02:55:08.004Z,1006.43
2022-12-06T02:56:07.771Z,1006.39
2022-12-06T02:57:07.749Z,1006.37
2022-12-06T02:58:07.742Z,1006.42
2022-12-06T02:59:07.728Z,1006.39
2022-12-06T03:00:07.966Z,1006.39
2022-12-06T03:01:07.744Z,1006.40
2022-12-06T03:02:07.744Z,1006.35
2022-12-06T03:03:07.677Z,1006.39
2022-12-06T03:04:07.668Z,1006.39
2022-12-06T03:05:07.666Z,1006.40
2022-12-06T03:06:07.657Z,1006.37
2022-12-06T03:07:07.648Z,1006.40
2022-12-06T03:08:07.640Z,1006.45
2022-12-06T03:09:07.608Z,1006.43
2022-12-06T03:10:07.597Z,1006.43
2022-12-06T03:11:07.596Z,1006.36
2022-12-06T03:12:07.586Z,1006.40
2022-12-06T03:13:07.569Z,1006.43
2022-12-06T03:14:08.301Z,1006.43
2022-12-06T03:15:07.534Z,1006.47
2022-12-06T03:16:07.569Z,1006.43
2022-12-06T03:17:07.699Z,1006.42
2022-12-06T03:18:07.494Z,1006.42
2022-12-06T03:19:07.486Z,1006.41
2022-12-06T03:20:07.464Z,1006.46
2022-12-06T03:21:07.464Z,1006.50
2022-12-06T03:22:07.671Z,1006.39
2022-12-06T03:23:07.435Z,1006.47
2022-12-06T03:24:07.415Z,1006.46
2022-12-06T03:25:07.404Z,1006.43
2022-12-06T03:26:07.400Z,1006.47
2022-12-06T03:27:07.593Z,1006.45
2022-12-06T03:28:07.369Z,1006.44
2022-12-06T03:29:07.361Z,1006.47
2022-12-06T03:30:07.340Z,1006.45
2022-12-06T03:31:07.401Z,1006.43
2022-12-06T03:32:07.313Z,1006.40
2022-12-06T03:33:07.540Z,1006.43
2022-12-06T03:34:07.290Z,1006.41
2022-12-06T03:35:07.283Z,1006.36
2022-12-06T03:36:07.270Z,1006.40
2022-12-06T03:37:07.271Z,1006.37
2022-12-06T03:38:07.441Z,1006.45
2022-12-06T03:39:07.238Z,1006.37
2022-12-06T03:40:07.220Z,1006.38
2022-12-06T03:41:07.436Z,1006.45
2022-12-06T03:42:07.199Z,1006.38
2022-12-06T03:43:07.387Z,1006.37
2022-12-06T03:44:07.158Z,1006.37
2022-12-06T03:45:07.166Z,1006.32
2022-12-06T03:46:07.235Z,1006.33
2022-12-06T03:47:07.204Z,1006.41
2022-12-06T03:48:07.307Z,1006.33
2022-12-06T03:49:07.106Z,1006.33
2022-12-06T03:50:07.316Z,1006.37
2022-12-06T03:51:07.085Z,1006.36
2022-12-06T03:52:07.069Z,1006.35
2022-12-06T03:53:07.054Z,1006.29
2022-12-06T03:54:07.263Z,1006.33
2022-12-06T03:55:07.046Z,1006.33
2022-12-06T03:56:07.054Z,1006.35
2022-12-06T03:57:07.011Z,1006.40
2022-12-06T03:58:06.992Z,1006.36
2022-12-06T03:59:07.179Z,1006.32
2022-12-06T04:00:06.965Z,1006.34
2022-12-06T04:01:06.953Z,1006.36
2022-12-06T04:02:06.996Z,1006.35
2022-12-06T04:03:06.945Z,1006.31
2022-12-06T04:04:07.036Z,1006.31
2022-12-06T04:05:06.903Z,1006.36
2022-12-06T04:06:06.923Z,1006.34
2022-12-06T04:07:06.891Z,1006.33
2022-12-06T04:08:06.918Z,1006.32
2022-12-06T04:09:06.862Z,1006.36
2022-12-06T04:10:06.862Z,1006.27
2022-12-06T04:11:06.838Z,1006.33
2022-12-06T04:12:06.815Z,1006.36
2022-12-06T04:13:06.802Z,1006.35
2022-12-06T04:14:06.793Z,1006.34
2022-12-06T04:15:06.809Z,1006.30
2022-12-06T04:16:07.105Z,1006.33
2022-12-06T04:17:06.749Z,1006.27
2022-12-06T04:18:06.739Z,1006.37
2022-12-06T04:19:06.727Z,1006.28
2022-12-06T04:20:06.725Z,1006.30
2022-12-06T04:21:06.958Z,1006.34
2022-12-06T04:22:06.688Z,1006.30
2022-12-06T04:23:06.675Z,1006.34
2022-12-06T04:24:06.677Z,1006.31
2022-12-06T04:25:06.660Z,1006.30
2022-12-06T04:26:06.667Z,1006.28
2022-12-06T04:27:06.628Z,1006.27
2022-12-06T04:28:06.633Z,1006.25
2022-12-06T04:29:06.604Z,1006.24
2022-12-06T04:30:06.595Z,1006.18
2022-12-06T04:31:06.927Z,1006.29
2022-12-06T04:32:06.775Z,1006.23
2022-12-06T04:33:06.546Z,1006.24
2022-12-06T04:34:06.547Z,1006.26
2022-12-06T04:35:06.534Z,1006.27
2022-12-06T04:36:06.528Z,1006.18
2022-12-06T04:37:06.535Z,1006.28
2022-12-06T04:38:06.674Z,1006.27
2022-12-06T04:39:06.481Z,1006.24
2022-12-06T04:40:06.495Z,1006.23
2022-12-06T04:41:06.463Z,1006.26
2022-12-06T04:42:06.714Z,1006.31
2022-12-06T04:43:06.468Z,1006.33
2022-12-06T04:44:06.420Z,1006.31
2022-12-06T04:45:06.415Z,1006.30
2022-12-06T04:46:06.393Z,1006.30
2022-12-06T04:47:06.434Z,1006.27
2022-12-06T04:48:06.592Z,1006.30
2022-12-06T04:49:06.354Z,1006.32
2022-12-06T04:50:06.338Z,1006.22
2022-12-06T04:51:06.328Z,1006.24
2022-12-06T04:52:06.322Z,1006.34
2022-12-06T04:53:06.531Z,1006.36
2022-12-06T04:54:06.300Z,1006.26
2022-12-06T04:55:06.270Z,1006.27
2022-12-06T04:56:06.460Z,1006.25
2022-12-06T04:57:06.469Z,1006.32
2022-12-06T04:58:06.251Z,1006.28
2022-12-06T04:59:06.227Z,1006.35
2022-12-06T05:00:06.224Z,1006.30
2022-12-06T05:01:06.481Z,1006.28
2022-12-06T05:02:06.198Z,1006.26
2022-12-06T05:03:06.192Z,1006.30
2022-12-06T05:04:06.250Z,1006.22
2022-12-06T05:05:06.148Z,1006.24
2022-12-06T05:06:06.345Z,1006.20
2022-12-06T05:07:06.127Z,1006.29
2022-12-06T05:08:06.324Z,1006.25
2022-12-06T05:09:06.095Z,1006.27
2022-12-06T05:10:06.096Z,1006.18
2022-12-06T05:11:06.084Z,1006.22
2022-12-06T05:12:06.286Z,1006.28
2022-12-06T05:13:06.055Z,1006.22
2022-12-06T05:14:06.044Z,1006.23
2022-12-06T05:15:06.224Z,1006.27
2022-12-06T05:16:06.084Z,1006.16
2022-12-06T05:17:06.019Z,1006.12
2022-12-06T05:18:05.993Z,1006.17
2022-12-06T05:19:05.973Z,1006.18
2022-12-06T05:20:05.993Z,1006.16
2022-12-06T05:21:05.945Z,1006.22
2022-12-06T05:22:05.932Z,1006.19
2022-12-06T05:23:06.132Z,1006.16
2022-12-06T05:24:06.133Z,1006.25
2022-12-06T05:25:05.901Z,1006.21
2022-12-06T05:26:05.898Z,1006.20
2022-12-06T05:27:05.920Z,1006.21
2022-12-06T05:28:06.060Z,1006.21
2022-12-06T05:29:05.850Z,1006.25
2022-12-06T05:30:06.071Z,1006.20
2022-12-06T05:31:05.847Z,1006.15
2022-12-06T05:32:05.823Z,1006.25
2022-12-06T05:33:06.032Z,1006.28
2022-12-06T05:34:05.804Z,1006.24
2022-12-06T05:35:05.769Z,1006.25
2022-12-06T05:36:05.768Z,1006.25
2022-12-06T05:37:05.758Z,1006.23
2022-12-06T05:38:05.758Z,1006.26
2022-12-06T05:39:05.737Z,1006.20
2022-12-06T05:40:05.716Z,1006.28
2022-12-06T05:41:05.700Z,1006.24
2022-12-06T05:42:05.689Z,1006.22
2022-12-06T05:43:05.865Z,1006.19
2022-12-06T05:44:05.661Z,1006.23
2022-12-06T05:45:05.646Z,1006.11
2022-12-06T05:46:05.931Z,1006.24
2022-12-06T05:47:05.695Z,1006.23
2022-12-06T05:48:05.614Z,1006.19
2022-12-06T05:49:05.603Z,1006.12
2022-12-06T05:50:05.600Z,1006.15
2022-12-06T05:51:05.581Z,1006.14
2022-12-06T05:52:05.782Z,1006.22
2022-12-06T05:53:05.545Z,1006.10
2022-12-06T05:54:05.747Z,1006.13
2022-12-06T05:55:05.540Z,1006.12
2022-12-06T05:56:05.507Z,1006.08
2022-12-06T05:57:05.497Z,1006.08
2022-12-06T05:58:05.481Z,1006.06
2022-12-06T05:59:05.685Z,1006.12
2022-12-06T06:00:05.462Z,1006.12
2022-12-06T06:01:05.671Z,1006.13
2022-12-06T06:02:05.505Z,1006.14
2022-12-06T06:03:05.590Z,1006.15
2022-12-06T06:04:05.593Z,1006.13
2022-12-06T06:05:05.419Z,1006.13
2022-12-06T06:06:05.381Z,1006.09
2022-12-06T06:07:05.610Z,1006.13
2022-12-06T06:08:05.398Z,1006.12
2022-12-06T06:09:05.350Z,1006.17
2022-12-06T06:10:05.539Z,1006.17
2022-12-06T06:11:05.320Z,1006.10
2022-12-06T06:12:10.845Z,1006.13
2022-12-06T06:13:06.516Z,1006.13
2022-12-06T06:14:05.288Z,1006.14
2022-12-06T06:15:05.287Z,1006.14
2022-12-06T06:16:05.262Z,1006.21
2022-12-06T06:17:05.271Z,1006.19
2022-12-06T06:18:05.235Z,1006.16
2022-12-06T06:19:05.459Z,1006.16
2022-12-06T06:20:05.467Z,1006.21
2022-12-06T06:21:05.198Z,1006.18
2022-12-06T06:22:05.366Z,1006.18
2022-12-06T06:23:05.176Z,1006.16
2022-12-06T06:24:05.155Z,1006.21
2022-12-06T06:25:05.160Z,1006.23
2022-12-06T06:26:05.135Z,1006.13
2022-12-06T06:27:05.163Z,1006.14
2022-12-06T06:28:05.113Z,1006.14
2022-12-06T06:29:05.107Z,1006.13
2022-12-06T06:30:05.077Z,1006.14
2022-12-06T06:31:05.070Z,1006.20
2022-12-06T06:32:05.113Z,1006.18
2022-12-06T06:33:05.063Z,1006.10
2022-12-06T06:34:05.044Z,1006.16
2022-12-06T06:35:05.014Z,1006.11
2022-12-06T06:36:05.071Z,1006.17
2022-12-06T06:37:05.001Z,1006.15
2022-12-06T06:38:05.185Z,1006.13
2022-12-06T06:39:04.993Z,1006.15
2022-12-06T06:40:04.976Z,1006.13
2022-12-06T06:41:05.012Z,1006.15
2022-12-06T06:42:04.959Z,1006.16
2022-12-06T06:43:05.128Z,1006.15
2022-12-06T06:44:04.905Z,1006.11
2022-12-06T06:45:04.894Z,1006.13
2022-12-06T06:46:04.957Z,1006.16
2022-12-06T06:47:04.884Z,1006.15
2022-12-06T06:48:04.864Z,1006.06
2022-12-06T06:49:04.855Z,1006.16
2022-12-06T06:50:04.818Z,1006.14
2022-12-06T06:51:05.029Z,1006.13
2022-12-06T06:52:04.798Z,1006.18
2022-12-06T06:53:04.819Z,1006.13
2022-12-06T06:54:04.820Z,1006.17
2022-12-06T06:55:04.776Z,1006.16
2022-12-06T06:56:04.748Z,1006.17
2022-12-06T06:57:04.760Z,1006.21
2022-12-06T06:58:04.725Z,1006.23
2022-12-06T06:59:04.937Z,1006.22
2022-12-06T07:00:04.907Z,1006.26
2022-12-06T07:01:04.764Z,1006.24
2022-12-06T07:02:04.737Z,1006.25
2022-12-06T07:03:04.678Z,1006.24
2022-12-06T07:04:04.645Z,1006.21
2022-12-06T07:05:04.855Z,1006.22
2022-12-06T07:06:04.616Z,1006.21
2022-12-06T07:07:04.615Z,1006.25
2022-12-06T07:08:04.644Z,1006.15
2022-12-06T07:09:04.593Z,1006.14
2022-12-06T07:10:04.601Z,1006.16
2022-12-06T07:11:04.567Z,1006.19
2022-12-06T07:12:04.553Z,1006.14
2022-12-06T07:13:04.755Z,1006.12
2022-12-06T07:14:04.522Z,1006.21
2022-12-06T07:15:04.736Z,1006.16
2022-12-06T07:16:04.502Z,1006.16
2022-12-06T07:17:04.536Z,1006.15
2022-12-06T07:18:04.492Z,1006.22
2022-12-06T07:19:08.838Z,1006.17
2022-12-06T07:20:04.454Z,1006.16
2022-12-06T07:21:04.431Z,1006.19
2022-12-06T07:22:04.481Z,1006.17
2022-12-06T07:23:04.401Z,1006.19
2022-12-06T07:24:04.390Z,1006.21
2022-12-06T07:25:04.389Z,1006.19
2022-12-06T07:26:04.401Z,1006.23
2022-12-06T07:27:04.380Z,1006.27
2022-12-06T07:28:04.343Z,1006.29
2022-12-06T07:29:04.333Z,1006.25
2022-12-06T07:30:04.328Z,1006.24
2022-12-06T07:31:04.341Z,1006.29
2022-12-06T07:32:04.455Z,1006.27
2022-12-06T07:33:04.298Z,1006.23
2022-12-06T07:34:04.270Z,1006.24
2022-12-06T07:35:04.290Z,1006.20
2022-12-06T07:36:12.026Z,1006.20
2022-12-06T07:37:05.239Z,1006.15
2022-12-06T07:38:04.468Z,1006.21
2022-12-06T07:39:04.227Z,1006.21
2022-12-06T07:40:04.215Z,1006.26
2022-12-06T07:41:05.200Z,1006.24
2022-12-06T07:42:04.174Z,1006.25
2022-12-06T07:43:04.174Z,1006.28
2022-12-06T07:44:04.149Z,1006.26
2022-12-06T07:45:04.126Z,1006.15
2022-12-06T07:46:04.176Z,1006.24
2022-12-06T07:47:04.105Z,1006.26
2022-12-06T07:48:04.334Z,1006.23
2022-12-06T07:49:04.123Z,1006.19
2022-12-06T07:50:04.077Z,1006.33
2022-12-06T07:51:04.063Z,1006.31
2022-12-06T07:52:04.044Z,1006.29
2022-12-06T07:53:04.027Z,1006.31
2022-12-06T07:54:04.045Z,1006.25
2022-12-06T07:55:04.020Z,1006.34
2022-12-06T07:56:04.001Z,1006.34
2022-12-06T07:57:03.982Z,1006.28
2022-12-06T07:58:03.964Z,1006.29
2022-12-06T07:59:04.170Z,1006.32
2022-12-06T08:00:03.972Z,1006.29
2022-12-06T08:01:03.987Z,1006.34
2022-12-06T08:02:03.962Z,1006.30
2022-12-06T08:03:03.903Z,1006.34
2022-12-06T08:04:03.948Z,1006.33
2022-12-06T08:05:03.878Z,1006.29
2022-12-06T08:06:03.900Z,1006.32
2022-12-06T08:07:03.850Z,1006.40
2022-12-06T08:08:03.885Z,1006.38
2022-12-06T08:09:03.828Z,1006.35
2022-12-06T08:10:04.066Z,1006.40
2022-12-06T08:11:03.826Z,1006.37
2022-12-06T08:12:03.817Z,1006.43
2022-12-06T08:13:03.777Z,1006.32
2022-12-06T08:14:03.771Z,1006.36
2022-12-06T08:15:03.757Z,1006.38
2022-12-06T08:16:03.804Z,1006.43
2022-12-06T08:17:03.936Z,1006.40
2022-12-06T08:18:03.758Z,1006.36
2022-12-06T08:19:03.699Z,1006.41
2022-12-06T08:20:03.976Z,1006.43
2022-12-06T08:21:03.686Z,1006.36
2022-12-06T08:22:03.664Z,1006.43
2022-12-06T08:23:03.653Z,1006.48
2022-12-06T08:24:03.635Z,1006.42
2022-12-06T08:25:03.634Z,1006.49
2022-12-06T08:26:03.636Z,1006.49
2022-12-06T08:27:03.635Z,1006.52
2022-12-06T08:28:03.585Z,1006.46
2022-12-06T08:29:03.566Z,1006.57
2022-12-06T08:30:03.749Z,1006.58
2022-12-06T08:31:03.633Z,1006.53
2022-12-06T08:32:03.593Z,1006.51
2022-12-06T08:33:03.521Z,1006.53
2022-12-06T08:34:03.526Z,1006.53
2022-12-06T08:35:03.522Z,1006.47
2022-12-06T08:36:03.718Z,1006.54
2022-12-06T08:37:03.875Z,1006.52
2022-12-06T08:38:03.474Z,1006.48
2022-12-06T08:39:03.451Z,1006.48
2022-12-06T08:40:03.564Z,1006.47
2022-12-06T08:41:03.450Z,1006.54
2022-12-06T08:42:03.413Z,1006.47
2022-12-06T08:43:03.390Z,1006.49
2022-12-06T08:44:03.392Z,1006.48
2022-12-06T08:45:03.368Z,1006.53
2022-12-06T08:46:03.457Z,1006.48
2022-12-06T08:47:03.339Z,1006.52
2022-12-06T08:48:03.342Z,1006.50
2022-12-06T08:49:03.319Z,1006.52
2022-12-06T08:50:03.549Z,1006.53
2022-12-06T08:51:03.317Z,1006.57
2022-12-06T08:52:03.289Z,1006.52
2022-12-06T08:53:03.329Z,1006.56
2022-12-06T08:54:03.257Z,1006.56
2022-12-06T08:55:03.237Z,1006.58
2022-12-06T08:56:03.299Z,1006.58
2022-12-06T08:57:03.215Z,1006.61
2022-12-06T08:58:03.243Z,1006.64
2022-12-06T08:59:03.197Z,1006.60
2022-12-06T09:00:03.616Z,1006.64
2022-12-06T09:01:03.168Z,1006.62
2022-12-06T09:02:03.251Z,1006.62
2022-12-06T09:03:03.355Z,1006.64
2022-12-06T09:04:03.187Z,1006.55
2022-12-06T09:05:03.248Z,1006.59
2022-12-06T09:06:03.137Z,1006.63
2022-12-06T09:07:05.292Z,1006.55
2022-12-06T09:08:04.154Z,1006.58
2022-12-06T09:09:03.075Z,1006.60
2022-12-06T09:10:03.281Z,1006.62
2022-12-06T09:11:03.085Z,1006.62
2022-12-06T09:12:03.058Z,1006.76
2022-12-06T09:13:03.013Z,1006.70
2022-12-06T09:14:03.004Z,1006.69
2022-12-06T09:15:02.992Z,1006.63
2022-12-06T09:16:03.284Z,1006.66
2022-12-06T09:17:02.977Z,1006.65
2022-12-06T09:18:02.978Z,1006.68
2022-12-06T09:19:02.946Z,1006.64
2022-12-06T09:20:08.846Z,1006.64
2022-12-06T09:21:04.121Z,1006.64
2022-12-06T09:22:02.923Z,1006.65
2022-12-06T09:23:02.895Z,1006.70
2022-12-06T09:24:02.880Z,1006.71
2022-12-06T09:25:03.090Z,1006.58
2022-12-06T09:26:02.883Z,1006.60
2022-12-06T09:27:02.840Z,1006.57
2022-12-06T09:28:03.028Z,1006.58
2022-12-06T09:29:02.811Z,1006.69
2022-12-06T09:30:03.069Z,1006.68
2022-12-06T09:31:02.889Z,1006.68
2022-12-06T09:32:02.777Z,1006.71
2022-12-06T09:33:02.781Z,1006.62
2022-12-06T09:34:02.747Z,1006.67
2022-12-06T09:35:02.736Z,1006.64
2022-12-06T09:36:02.944Z,1006.70
2022-12-06T09:37:02.716Z,1006.65
2022-12-06T09:38:02.707Z,1006.71
2022-12-06T09:39:02.676Z,1006.66
2022-12-06T09:40:02.994Z,1006.64
2022-12-06T09:41:02.654Z,1006.66
2022-12-06T09:42:02.645Z,1006.68
2022-12-06T09:43:02.634Z,1006.72
2022-12-06T09:44:02.614Z,1006.72
2022-12-06T09:45:02.605Z,1006.76
2022-12-06T09:46:02.907Z,1006.66
2022-12-06T09:47:02.584Z,1006.70
2022-12-06T09:48:02.594Z,1006.72
2022-12-06T09:49:02.567Z,1006.71
2022-12-06T09:50:02.801Z,1006.72
2022-12-06T09:51:02.676Z,1006.70
2022-12-06T09:52:02.520Z,1006.69
2022-12-06T09:53:02.512Z,1006.66
2022-12-06T09:54:02.722Z,1006.66
2022-12-06T09:55:02.483Z,1006.71
2022-12-06T09:56:02.461Z,1006.74
2022-12-06T09:57:02.472Z,1006.70
2022-12-06T09:58:02.445Z,1006.66
2022-12-06T09:59:02.513Z,1006.70
2022-12-06T10:00:03.230Z,1006.70
2022-12-06T10:01:02.617Z,1006.71
2022-12-06T10:02:02.664Z,1006.71
2022-12-06T10:03:02.458Z,1006.62
2022-12-06T10:04:02.371Z,1006.68
2022-12-06T10:05:02.359Z,1006.70
2022-12-06T10:06:02.338Z,1006.69
2022-12-06T10:07:02.329Z,1006.66
2022-12-06T10:08:02.483Z,1006.64
2022-12-06T10:09:02.418Z,1006.63
2022-12-06T10:10:02.539Z,1006.63
2022-12-06T10:11:08.354Z,1006.61
2022-12-06T10:12:03.270Z,1006.63
2022-12-06T10:13:02.366Z,1006.61
2022-12-06T10:14:02.248Z,1006.63
2022-12-06T10:15:02.228Z,1006.64
2022-12-06T10:16:02.489Z,1006.52
2022-12-06T10:17:02.218Z,1006.52
2022-12-06T10:18:02.237Z,1006.59
2022-12-06T10:19:02.175Z,1006.59
2022-12-06T10:20:02.399Z,1006.58
2022-12-06T10:21:02.176Z,1006.56
2022-12-06T10:22:02.137Z,1006.61
2022-12-06T10:23:02.115Z,1006.57
2022-12-06T10:24:02.489Z,1006.58
2022-12-06T10:25:02.096Z,1006.54
2022-12-06T10:26:02.085Z,1006.57
2022-12-06T10:27:02.074Z,1006.60
2022-12-06T10:28:02.094Z,1006.57
2022-12-06T10:29:02.052Z,1006.56
2022-12-06T10:30:02.222Z,1006.53
2022-12-06T10:31:02.077Z,1006.55
2022-12-06T10:32:02.022Z,1006.57
2022-12-06T10:33:02.033Z,1006.50
2022-12-06T10:34:02.012Z,1006.48
2022-12-06T10:35:02.232Z,1006.47
2022-12-06T10:36:01.963Z,1006.44
2022-12-06T10:37:01.941Z,1006.42
2022-12-06T10:38:01.941Z,1006.49
2022-12-06T10:39:01.980Z,1006.52
2022-12-06T10:40:02.219Z,1006.48
2022-12-06T10:41:01.899Z,1006.47
2022-12-06T10:42:01.901Z,1006.39
2022-12-06T10:43:01.868Z,1006.37
2022-12-06T10:44:01.868Z,1006.39
2022-12-06T10:45:02.140Z,1006.42
2022-12-06T10:46:07.109Z,1006.37
2022-12-06T10:47:02.884Z,1006.41
2022-12-06T10:48:01.818Z,1006.32
2022-12-06T10:49:01.785Z,1006.39
2022-12-06T10:50:02.004Z,1006.37
2022-12-06T10:51:01.904Z,1006.33
2022-12-06T10:52:01.759Z,1006.34
2022-12-06T10:53:02.343Z,1006.37
2022-12-06T10:54:01.736Z,1006.32
2022-12-06T10:55:01.707Z,1006.42
2022-12-06T10:56:01.704Z,1006.37
2022-12-06T10:57:01.709Z,1006.34
2022-12-06T10:58:01.686Z,1006.34
2022-12-06T10:59:01.663Z,1006.26
2022-12-06T11:00:03.939Z,1006.28
2022-12-06T11:01:01.680Z,1006.33
2022-12-06T11:02:01.923Z,1006.32
2022-12-06T11:03:01.813Z,1006.36
2022-12-06T11:04:01.594Z,1006.29
2022-12-06T11:05:01.616Z,1006.31
2022-12-06T11:06:01.613Z,1006.22
2022-12-06T11:07:01.761Z,1006.29
2022-12-06T11:08:01.764Z,1006.26
2022-12-06T11:09:01.604Z,1006.28
2022-12-06T11:10:01.766Z,1006.24
2022-12-06T11:11:01.729Z,1006.24
2022-12-06T11:12:01.509Z,1006.25
2022-12-06T11:13:01.485Z,1006.26
2022-12-06T11:14:01.512Z,1006.19
2022-12-06T11:15:01.461Z,1006.20
2022-12-06T11:16:01.485Z,1006.17
2022-12-06T11:17:01.435Z,1006.19
2022-12-06T11:18:02.807Z,1006.18
2022-12-06T11:19:01.430Z,1006.23
2022-12-06T11:20:01.860Z,1006.18
2022-12-06T11:21:01.409Z,1006.13
2022-12-06T11:22:01.374Z,1006.15
2022-12-06T11:23:01.367Z,1006.20
2022-12-06T11:24:01.372Z,1006.13
2022-12-06T11:25:01.345Z,1006.11
2022-12-06T11:26:01.549Z,1006.11
2022-12-06T11:27:01.298Z,1006.08
2022-12-06T11:28:01.302Z,1006.19
2022-12-06T11:29:01.279Z,1006.20
2022-12-06T11:30:01.546Z,1006.11
2022-12-06T11:31:01.401Z,1006.13
2022-12-06T11:32:01.333Z,1006.04
2022-12-06T11:33:01.236Z,1006.04
2022-12-06T11:34:01.217Z,1006.06
2022-12-06T11:35:01.438Z,1006.11
2022-12-06T11:36:01.190Z,1006.10
2022-12-06T11:37:01.197Z,1006.14
2022-12-06T11:38:01.173Z,1005.99
2022-12-06T11:39:01.157Z,1006.02
2022-12-06T11:40:01.609Z,1006.02
2022-12-06T11:41:01.141Z,1006.05
2022-12-06T11:42:02.129Z,1006.03
2022-12-06T11:43:01.118Z,1005.98
2022-12-06T11:44:01.125Z,1006.02
2022-12-06T11:45:01.443Z,1005.98
2022-12-06T11:46:01.070Z,1006.08
2022-12-06T11:47:01.161Z,1006.01
2022-12-06T11:48:01.047Z,1006.03
2022-12-06T11:49:01.044Z,1005.99
2022-12-06T11:50:07.433Z,1005.99
2022-12-06T11:51:01.998Z,1006.01
2022-12-06T11:52:01.226Z,1005.97
2022-12-06T11:53:00.984Z,1005.99
2022-12-06T11:54:00.972Z,1006.00
2022-12-06T11:55:01.219Z,1005.98
2022-12-06T11:56:00.965Z,1005.96
2022-12-06T11:57:00.928Z,1006.03
2022-12-06T11:58:00.910Z,1006.01
2022-12-06T11:59:00.931Z,1006.03
2022-12-06T12:00:01.463Z,1006.00
2022-12-06T12:01:01.130Z,1006.04
2022-12-06T12:02:00.949Z,1006.01
2022-12-06T12:03:00.888Z,1006.04
2022-12-06T12:04:00.837Z,1006.01
2022-12-06T12:05:00.910Z,1006.02